createdAt,value
2022-08-07T00:02:37.131Z,101047.28
2022-08-07T00:07:20.863Z,101046.70
2022-08-07T00:12:23.935Z,101050.89
2022-08-07T00:17:28.905Z,101056.00
2022-08-07T00:22:38.104Z,101054.52
2022-08-07T00:27:53.774Z,101056.45
2022-08-07T00:33:01.187Z,101056.66
2022-08-07T00:38:05.761Z,101055.23
2022-08-07T00:43:59.020Z,101056.48
2022-08-07T00:48:33.248Z,101056.30
2022-08-07T00:53:39.247Z,101055.38
2022-08-07T00:58:53.130Z,101057.50
2022-08-07T01:04:00.074Z,101054.14
2022-08-07T01:09:04.780Z,101053.32
2022-08-07T01:14:08.949Z,101050.69
2022-08-07T01:19:18.468Z,101051.78
2022-08-07T01:24:23.129Z,101050.22
2022-08-07T01:29:31.431Z,101046.81
2022-08-07T01:34:37.251Z,101041.30
2022-08-07T01:39:46.584Z,101042.63
2022-08-07T01:44:49.936Z,101044.16
2022-08-07T01:49:54.616Z,101045.14
2022-08-07T01:55:01.070Z,101046.75
2022-08-07T02:00:13.172Z,101043.73
2022-08-07T02:05:48.222Z,101046.30
2022-08-07T02:10:59.613Z,101046.27
2022-08-07T02:16:04.880Z,101040.61
2022-08-07T02:21:16.045Z,101042.09
2022-08-07T02:26:33.062Z,101046.44
2022-08-07T02:31:39.353Z,101043.36
2022-08-07T02:36:45.212Z,101045.60
2022-08-07T02:41:54.771Z,101043.95
2022-08-07T02:47:00.915Z,101042.98
2022-08-07T02:52:06.933Z,101050.60
2022-08-07T02:57:14.352Z,101051.17
2022-08-07T03:02:18.238Z,101049.74
2022-08-07T03:07:21.513Z,101048.38
2022-08-07T03:12:46.716Z,101048.14
2022-08-07T03:17:53.470Z,101043.59
2022-08-07T03:22:58.703Z,101043.99
2022-08-07T03:28:09.529Z,101043.61
2022-08-07T03:33:26.602Z,101043.73
2022-08-07T03:38:36.258Z,101044.27
2022-08-07T03:43:40.361Z,101042.17
2022-08-07T03:49:02.512Z,101044.98
2022-08-07T03:54:35.746Z,101048.89
2022-08-07T03:59:29.461Z,101051.77
2022-08-07T04:04:32.956Z,101051.39
2022-08-07T04:09:45.236Z,101054.08
2022-08-07T04:14:54.454Z,101050.64
2022-08-07T04:19:59.079Z,101053.86
2022-08-07T04:25:02.441Z,101058.16
2022-08-07T04:30:11.813Z,101061.21
2022-08-07T04:35:17.239Z,101069.20
2022-08-07T04:40:20.325Z,101068.18
2022-08-07T04:45:57.859Z,101071.22
2022-08-07T04:51:32.101Z,101078.30
2022-08-07T04:58:24.305Z,101076.29
2022-08-07T05:02:21.098Z,101076.02
2022-08-07T05:07:55.419Z,101081.13
2022-08-07T05:14:44.904Z,101083.38
2022-08-07T05:18:47.509Z,101086.67
2022-08-07T05:24:01.422Z,101087.92
2022-08-07T05:29:08.173Z,101091.91
2022-08-07T05:34:15.703Z,101095.34
2022-08-07T05:40:05.774Z,101092.59
2022-08-07T05:44:52.961Z,101088.84
2022-08-07T05:50:09.064Z,101087.75
2022-08-07T05:55:12.399Z,101090.94
2022-08-07T06:00:18.442Z,101091.85
2022-08-07T06:05:28.892Z,101090.68
2022-08-07T06:10:33.307Z,101095.35
2022-08-07T06:15:41.939Z,101095.67
2022-08-07T06:20:50.350Z,101096.61
2022-08-07T06:26:14.524Z,101091.46
2022-08-07T06:31:17.706Z,101091.10
2022-08-07T06:36:27.490Z,101093.78
2022-08-07T06:42:03.469Z,101091.89
2022-08-07T06:47:10.421Z,101093.95
2022-08-07T06:52:31.694Z,101098.02
2022-08-07T06:57:48.345Z,101107.58
2022-08-07T07:02:58.247Z,101115.01
2022-08-07T07:08:06.740Z,101115.32
2022-08-07T07:13:17.093Z,101118.05
2022-08-07T07:18:48.792Z,101116.83
2022-08-07T07:24:08.280Z,101119.19
2022-08-07T07:29:56.835Z,101119.20
2022-08-07T07:34:45.459Z,101124.42
2022-08-07T07:39:54.477Z,101124.41
2022-08-07T07:45:01.729Z,101120.80
2022-08-07T07:50:34.144Z,101118.11
2022-08-07T07:55:37.820Z,101115.48
2022-08-07T08:00:53.797Z,101115.10
2022-08-07T08:05:56.948Z,101111.38
2022-08-07T08:11:01.213Z,101112.20
2022-08-07T08:16:06.244Z,101112.18
2022-08-07T08:22:00.665Z,101115.39
2022-08-07T08:27:09.773Z,101117.02
2022-08-07T08:32:25.209Z,101121.58
2022-08-07T08:38:00.861Z,101123.46
2022-08-07T08:43:05.625Z,101123.30
2022-08-07T08:49:06.304Z,101120.66
2022-08-07T08:54:24.694Z,101120.45
2022-08-07T08:59:53.885Z,101120.88
2022-08-07T09:05:21.515Z,101115.42
2022-08-07T09:10:44.362Z,101112.63
2022-08-07T09:16:23.251Z,101109.52
2022-08-07T09:21:34.012Z,101104.77
2022-08-07T09:27:31.116Z,101101.73
2022-08-07T09:32:53.213Z,101103.53
2022-08-07T09:38:10.351Z,101099.45
2022-08-07T09:44:03.444Z,101093.45
2022-08-07T09:50:01.949Z,101080.59
2022-08-07T09:54:40.477Z,101074.95
2022-08-07T10:00:02.079Z,101068.54
2022-08-07T10:05:15.526Z,101067.68
2022-08-07T10:11:07.698Z,101065.55
2022-08-07T10:16:16.085Z,101056.72
2022-08-07T10:22:12.156Z,101049.95
2022-08-07T10:27:24.338Z,101043.79
2022-08-07T10:33:13.071Z,101041.98
2022-08-07T10:38:48.348Z,101034.89
2022-08-07T10:44:02.404Z,101026.23
2022-08-07T10:49:45.395Z,101024.02
2022-08-07T10:55:01.834Z,101019.40
2022-08-07T11:00:39.774Z,101009.67
2022-08-07T11:06:09.962Z,100999.91
2022-08-07T11:11:36.011Z,100992.48
2022-08-07T11:16:54.607Z,100984.11
2022-08-07T11:22:32.440Z,100985.95
2022-08-07T11:28:04.423Z,100985.75
2022-08-07T11:33:19.081Z,100979.37
2022-08-07T11:39:10.049Z,100978.77
2022-08-07T11:44:22.632Z,100978.67
2022-08-07T11:50:18.508Z,100975.16
2022-08-07T11:56:25.688Z,100967.42
2022-08-07T12:01:22.232Z,100971.08
2022-08-07T12:06:50.873Z,100973.77
2022-08-07T12:12:12.708Z,100966.95
2022-08-07T12:17:22.050Z,100957.24
2022-08-07T12:22:37.446Z,100950.09
2022-08-07T12:28:05.753Z,100949.83
2022-08-07T12:33:23.321Z,100947.73
2022-08-07T12:38:42.615Z,100945.55
2022-08-07T12:44:02.193Z,100950.11
2022-08-07T12:49:40.185Z,100945.60
2022-08-07T12:55:05.356Z,100944.17
2022-08-07T13:00:21.005Z,100938.05
2022-08-07T13:06:21.562Z,100936.50
2022-08-07T13:12:00.968Z,100940.42
2022-08-07T13:17:18.365Z,100935.51
2022-08-07T13:22:34.392Z,100925.53
2022-08-07T13:28:11.704Z,100927.33
2022-08-07T13:34:31.954Z,100923.66
2022-08-07T13:39:01.132Z,100919.27
2022-08-07T13:44:10.373Z,100916.69
2022-08-07T13:50:35.896Z,100907.44
2022-08-07T13:54:49.346Z,100910.36
2022-08-07T13:59:56.024Z,100912.21
2022-08-07T14:05:06.317Z,100907.77
2022-08-07T14:10:20.468Z,100905.19
2022-08-07T14:15:44.493Z,100903.96
2022-08-07T14:21:07.861Z,100907.98
2022-08-07T14:26:30.376Z,100900.11
2022-08-07T14:31:43.161Z,100897.52
2022-08-07T14:36:56.774Z,100895.06
2022-08-07T14:42:20.319Z,100897.73
2022-08-07T14:47:26.814Z,100895.55
2022-08-07T14:52:34.168Z,100888.39
2022-08-07T14:57:58.781Z,100887.61
2022-08-07T15:03:16.668Z,100885.02
2022-08-07T15:08:54.864Z,100883.18
2022-08-07T15:14:20.983Z,100880.07
2022-08-07T15:20:30.322Z,100878.77
2022-08-07T15:25:13.102Z,100873.45
2022-08-07T15:30:17.590Z,100880.09
2022-08-07T15:36:00.484Z,100876.23
2022-08-07T15:41:23.048Z,100869.70
2022-08-07T15:46:37.273Z,100860.38
2022-08-07T15:57:02.221Z,100862.36
2022-08-07T16:02:08.521Z,100861.21
2022-08-07T16:08:28.995Z,100858.58
2022-08-07T16:13:05.399Z,100855.73
2022-08-07T16:18:08.948Z,100856.35
2022-08-07T16:23:54.209Z,100854.09
2022-08-07T16:30:10.207Z,100852.84
2022-08-07T16:34:57.825Z,100854.77
2022-08-07T16:40:30.613Z,100855.04
2022-08-07T16:47:04.671Z,100856.05
2022-08-07T16:52:50.531Z,100854.95
2022-08-07T16:58:01.951Z,100861.21
2022-08-07T17:03:17.276Z,100858.85
2022-08-07T17:09:09.837Z,100858.77
2022-08-07T17:14:18.454Z,100856.14
2022-08-07T17:20:02.567Z,100858.02
2022-08-07T17:25:20.153Z,100861.55
2022-08-07T17:30:58.459Z,100863.01
2022-08-07T17:36:13.624Z,100862.31
2022-08-07T17:42:04.379Z,100864.48
2022-08-07T17:47:17.040Z,100872.70
2022-08-07T17:52:31.285Z,100874.00
2022-08-07T17:57:58.625Z,100875.58
2022-08-07T18:03:25.498Z,100877.64
2022-08-07T18:09:01.003Z,100883.20
2022-08-07T18:14:17.041Z,100881.20
2022-08-07T18:21:08.514Z,100895.54
2022-08-07T18:25:24.322Z,100896.71
2022-08-07T18:30:39.381Z,100899.85
2022-08-07T18:36:11.126Z,100898.55
2022-08-07T18:41:45.843Z,100906.94
2022-08-07T18:47:01.773Z,100913.32
2022-08-07T18:52:52.657Z,100921.48
2022-08-07T18:58:20.195Z,100932.23
2022-08-07T19:03:37.917Z,100933.38
2022-08-07T19:08:58.848Z,100933.72
2022-08-07T19:14:36.639Z,100936.23
2022-08-07T19:20:04.741Z,100937.17
2022-08-07T19:26:23.199Z,100940.58
2022-08-07T19:31:05.678Z,100943.96
2022-08-07T19:36:04.271Z,100951.46
2022-08-07T19:41:08.159Z,100955.24
2022-08-07T19:46:17.840Z,100957.67
2022-08-07T19:51:50.812Z,100955.75
2022-08-07T19:58:01.761Z,100962.10
2022-08-07T20:02:26.908Z,100967.11
2022-08-07T20:07:46.433Z,100971.10
2022-08-07T20:12:54.052Z,100980.52
2022-08-07T20:18:03.380Z,100977.70
2022-08-07T20:23:41.599Z,100983.81
2022-08-07T20:28:38.390Z,100989.53
2022-08-07T20:33:45.922Z,100996.56
2022-08-07T20:38:59.487Z,100998.65
2022-08-07T20:44:04.278Z,100999.35
2022-08-07T20:49:58.518Z,100999.86
2022-08-07T20:54:53.896Z,100999.21
2022-08-07T21:00:08.448Z,101000.18
2022-08-07T21:05:18.401Z,100997.43
2022-08-07T21:10:44.364Z,100998.64
2022-08-07T21:15:59.961Z,100997.29
2022-08-07T21:21:04.726Z,101005.11
2022-08-07T21:26:13.209Z,101003.42
2022-08-07T21:32:43.006Z,101011.64
2022-08-07T21:37:57.324Z,101012.54
2022-08-07T21:43:10.782Z,101014.73
2022-08-07T21:48:48.205Z,101011.55
2022-08-07T21:54:12.732Z,101010.63
2022-08-07T21:59:26.692Z,101010.73
2022-08-07T22:04:37.438Z,101013.14
2022-08-07T22:09:54.117Z,101010.19
2022-08-07T22:16:42.654Z,101007.38
2022-08-07T22:20:33.816Z,101001.74
2022-08-07T22:25:59.181Z,101001.80
2022-08-07T22:31:56.435Z,100999.91
2022-08-07T22:36:59.243Z,100995.42
2022-08-07T22:42:19.961Z,100991.45
2022-08-07T22:47:49.472Z,100986.48
2022-08-07T22:53:08.116Z,100983.88
2022-08-07T22:58:28.301Z,100983.14
2022-08-07T23:04:02.827Z,100981.70
2022-08-07T23:10:03.925Z,100977.33
2022-08-07T23:15:21.932Z,100978.15
2022-08-07T23:20:52.813Z,100976.44
2022-08-07T23:26:05.650Z,100975.35
2022-08-07T23:32:49.421Z,100980.45
2022-08-07T23:37:29.228Z,100980.72
2022-08-07T23:42:41.257Z,100980.84
2022-08-07T23:47:48.178Z,100979.52
2022-08-07T23:53:16.985Z,100980.94
2022-08-07T23:58:30.359Z,100983.52
